createdAt,value
2018-07-21T00:01:27.449Z,22.70
2018-07-21T00:03:56.386Z,22.60
2018-07-21T00:06:25.297Z,22.60
2018-07-21T00:08:54.258Z,22.60
2018-07-21T00:11:23.202Z,22.60
2018-07-21T00:13:52.094Z,22.50
2018-07-21T00:16:21.030Z,22.50
2018-07-21T00:18:49.965Z,22.40
2018-07-21T00:21:18.848Z,22.10
2018-07-21T00:23:47.753Z,22.10
2018-07-21T00:26:16.642Z,22.00
2018-07-21T00:28:45.534Z,21.90
2018-07-21T00:31:14.402Z,21.90
2018-07-21T00:33:43.318Z,21.90
2018-07-21T00:36:12.294Z,21.80
2018-07-21T00:38:41.291Z,21.80
2018-07-21T00:41:10.166Z,21.60
2018-07-21T00:43:39.089Z,21.70
2018-07-21T00:46:08.090Z,21.70
2018-07-21T00:48:37.041Z,21.70
2018-07-21T00:51:05.953Z,21.70
2018-07-21T00:53:34.849Z,21.60
2018-07-21T00:56:03.866Z,21.60
2018-07-21T00:58:32.843Z,21.50
2018-07-21T01:01:01.991Z,21.60
2018-07-21T01:03:30.906Z,21.60
2018-07-21T01:05:59.831Z,21.60
2018-07-21T01:08:28.785Z,21.50
2018-07-21T01:10:57.710Z,21.60
2018-07-21T01:13:26.693Z,21.60
2018-07-21T01:15:55.661Z,21.50
2018-07-21T01:18:24.578Z,21.60
2018-07-21T01:20:53.605Z,21.70
2018-07-21T01:23:22.535Z,21.60
2018-07-21T01:25:51.507Z,21.60
2018-07-21T01:28:20.517Z,21.60
2018-07-21T01:30:49.414Z,21.70
2018-07-21T01:33:18.307Z,21.70
2018-07-21T01:35:47.527Z,21.70
2018-07-21T01:38:16.409Z,21.60
2018-07-21T01:40:45.314Z,21.60
2018-07-21T01:43:14.226Z,21.60
2018-07-21T01:45:43.283Z,21.60
2018-07-21T01:48:12.187Z,21.60
2018-07-21T01:50:41.105Z,21.70
2018-07-21T01:55:38.598Z,21.80
2018-07-21T01:58:07.574Z,21.80
2018-07-21T02:00:36.571Z,21.80
2018-07-21T02:03:05.457Z,21.80
2018-07-21T02:05:34.394Z,21.80
2018-07-21T02:08:03.343Z,21.70
2018-07-21T02:10:32.225Z,21.70
2018-07-21T02:13:01.151Z,21.70
2018-07-21T02:15:30.231Z,21.70
2018-07-21T02:17:59.466Z,21.70
2018-07-21T02:20:28.523Z,21.70
2018-07-21T02:22:57.448Z,21.70
2018-07-21T02:25:26.383Z,21.70
2018-07-21T02:27:55.371Z,21.60
2018-07-21T02:30:24.390Z,21.60
2018-07-21T02:32:53.317Z,21.60
2018-07-21T02:37:50.999Z,21.60
2018-07-21T02:40:19.911Z,21.80
2018-07-21T02:42:48.889Z,21.80
2018-07-21T02:45:17.822Z,21.70
2018-07-21T02:47:46.706Z,21.70
2018-07-21T02:50:15.610Z,21.70
2018-07-21T02:52:44.530Z,21.60
2018-07-21T02:55:13.437Z,21.60
2018-07-21T02:57:42.339Z,21.60
2018-07-21T03:00:11.298Z,21.70
2018-07-21T03:02:40.187Z,21.60
2018-07-21T03:05:09.110Z,21.60
2018-07-21T03:07:37.991Z,21.50
2018-07-21T03:10:07.010Z,21.60
2018-07-21T03:12:36.106Z,21.60
2018-07-21T03:15:05.299Z,21.60
2018-07-21T03:17:34.187Z,21.60
2018-07-21T03:20:03.891Z,21.70
2018-07-21T03:22:32.771Z,21.70
2018-07-21T03:25:01.748Z,21.70
2018-07-21T03:27:30.630Z,21.70
2018-07-21T03:29:59.535Z,21.50
2018-07-21T03:32:28.446Z,21.50
2018-07-21T03:37:25.867Z,21.70
2018-07-21T03:39:54.758Z,21.50
2018-07-21T03:42:23.791Z,21.40
2018-07-21T03:44:52.744Z,21.30
2018-07-21T03:47:21.706Z,21.30
2018-07-21T03:49:50.601Z,21.30
2018-07-21T03:52:19.515Z,21.30
2018-07-21T03:54:48.398Z,21.30
2018-07-21T03:57:17.290Z,21.30
2018-07-21T03:59:46.178Z,21.10
2018-07-21T04:02:15.082Z,21.10
2018-07-21T04:04:44.054Z,21.00
2018-07-21T04:07:12.973Z,21.10
2018-07-21T04:09:41.862Z,21.00
2018-07-21T04:12:10.767Z,21.10
2018-07-21T04:14:39.720Z,21.10
2018-07-21T04:17:13.109Z,21.00
2018-07-21T04:22:10.502Z,20.80
2018-07-21T04:24:39.410Z,20.80
2018-07-21T04:27:08.430Z,20.80
2018-07-21T04:29:37.350Z,20.70
2018-07-21T04:32:06.385Z,20.70
2018-07-21T04:34:35.271Z,20.60
2018-07-21T04:37:04.247Z,20.50
2018-07-21T04:39:33.147Z,20.50
2018-07-21T04:42:02.083Z,20.50
2018-07-21T04:44:31.134Z,20.30
2018-07-21T04:47:00.059Z,20.20
2018-07-21T04:49:30.840Z,20.20
2018-07-21T04:52:00.940Z,20.20
2018-07-21T04:54:30.371Z,20.10
2018-07-21T04:56:59.653Z,20.20
2018-07-21T05:01:57.668Z,20.30
2018-07-21T05:06:55.150Z,20.20
2018-07-21T05:09:24.093Z,20.30
2018-07-21T05:11:52.992Z,20.30
2018-07-21T05:14:21.945Z,20.40
2018-07-21T05:16:50.922Z,20.40
2018-07-21T05:19:19.814Z,20.50
2018-07-21T05:21:48.718Z,20.50
2018-07-21T05:24:17.638Z,20.50
2018-07-21T05:26:46.547Z,20.50
2018-07-21T05:29:15.510Z,20.50
2018-07-21T05:31:44.494Z,20.50
2018-07-21T05:34:13.405Z,20.80
2018-07-21T05:36:42.428Z,21.00
2018-07-21T05:39:11.725Z,21.10
2018-07-21T05:41:41.434Z,21.40
2018-07-21T05:44:10.555Z,21.60
2018-07-21T05:46:39.542Z,21.60
2018-07-21T05:49:08.790Z,21.80
2018-07-21T05:51:37.698Z,21.70
2018-07-21T05:56:36.374Z,21.60
2018-07-21T05:59:05.405Z,21.50
2018-07-21T06:01:34.451Z,21.40
2018-07-21T06:04:03.448Z,21.30
2018-07-21T06:06:32.386Z,21.30
2018-07-21T06:09:01.267Z,21.20
2018-07-21T06:11:30.243Z,21.10
2018-07-21T06:13:59.275Z,21.10
2018-07-21T06:16:28.474Z,21.10
2018-07-21T06:18:57.508Z,21.10
2018-07-21T06:21:26.417Z,21.10
2018-07-21T06:23:55.459Z,21.10
2018-07-21T06:26:24.443Z,21.10
2018-07-21T06:28:53.354Z,21.10
2018-07-21T06:31:22.291Z,21.00
2018-07-21T06:33:51.186Z,21.10
2018-07-21T06:36:20.103Z,21.10
2018-07-21T06:38:48.997Z,21.20
2018-07-21T06:41:17.976Z,21.20
2018-07-21T06:43:47.008Z,21.20
2018-07-21T06:46:15.938Z,21.20
2018-07-21T06:48:44.859Z,21.20
2018-07-21T06:51:13.778Z,21.20
2018-07-21T06:53:42.913Z,21.10
2018-07-21T06:56:11.907Z,21.20
2018-07-21T06:58:40.794Z,21.10
2018-07-21T07:01:09.685Z,21.10
2018-07-21T07:03:38.819Z,21.10
2018-07-21T07:06:07.692Z,21.00
2018-07-21T07:08:36.744Z,20.80
2018-07-21T07:11:05.649Z,20.60
2018-07-21T07:13:34.535Z,20.60
2018-07-21T07:16:03.454Z,20.50
2018-07-21T07:18:32.386Z,20.70
2018-07-21T07:21:01.297Z,21.10
2018-07-21T07:23:30.238Z,21.10
2018-07-21T07:25:59.249Z,21.20
2018-07-21T07:28:28.242Z,21.30
2018-07-21T07:30:57.165Z,21.40
2018-07-21T07:33:26.188Z,21.40
2018-07-21T07:35:55.080Z,21.50
2018-07-21T07:38:24.026Z,21.60
2018-07-21T07:40:52.957Z,21.50
2018-07-21T07:43:21.882Z,21.50
2018-07-21T07:45:50.842Z,21.30
2018-07-21T07:48:19.783Z,21.10
2018-07-21T07:50:48.691Z,21.00
2018-07-21T07:53:17.667Z,21.20
2018-07-21T07:55:46.546Z,21.20
2018-07-21T07:58:15.540Z,21.00
2018-07-21T08:00:44.414Z,20.70
2018-07-21T08:03:13.314Z,20.50
2018-07-21T08:05:42.745Z,20.40
2018-07-21T08:08:12.619Z,20.30
2018-07-21T08:10:41.523Z,20.30
2018-07-21T08:13:10.462Z,20.40
2018-07-21T08:15:39.394Z,20.40
2018-07-21T08:18:08.352Z,20.40
2018-07-21T08:20:37.210Z,20.40
2018-07-21T08:23:06.164Z,20.40
2018-07-21T08:25:35.117Z,20.30
2018-07-21T08:28:04.063Z,20.30
2018-07-21T08:30:32.950Z,20.30
2018-07-21T08:33:01.857Z,20.20
2018-07-21T08:35:30.810Z,20.20
2018-07-21T08:37:59.728Z,20.30
2018-07-21T08:40:28.623Z,20.30
2018-07-21T08:42:57.590Z,20.30
2018-07-21T08:45:26.497Z,20.30
2018-07-21T08:47:55.451Z,20.30
2018-07-21T08:50:24.374Z,20.30
2018-07-21T08:52:53.329Z,20.30
2018-07-21T08:55:22.304Z,20.30
2018-07-21T08:57:51.419Z,20.30
2018-07-21T09:00:20.359Z,20.20
2018-07-21T09:02:49.377Z,20.10
2018-07-21T09:05:18.382Z,20.10
2018-07-21T09:07:48.266Z,20.20
2018-07-21T09:10:17.151Z,20.10
2018-07-21T09:12:46.079Z,20.10
2018-07-21T09:15:15.006Z,20.00
2018-07-21T09:17:44.077Z,20.00
2018-07-21T09:20:13.026Z,19.90
2018-07-21T09:22:41.926Z,19.90
2018-07-21T09:25:10.842Z,19.90
2018-07-21T09:27:39.755Z,19.80
2018-07-21T09:30:08.708Z,19.70
2018-07-21T09:32:37.618Z,19.70
2018-07-21T09:35:06.564Z,19.70
2018-07-21T09:37:35.461Z,19.70
2018-07-21T09:40:04.520Z,19.70
2018-07-21T09:42:33.474Z,19.70
2018-07-21T09:45:02.375Z,19.70
2018-07-21T09:47:31.290Z,19.80
2018-07-21T09:50:00.166Z,19.80
2018-07-21T09:52:29.112Z,19.70
2018-07-21T09:54:58.046Z,19.70
2018-07-21T09:57:26.990Z,19.60
2018-07-21T09:59:55.926Z,19.60
2018-07-21T10:02:24.850Z,19.50
2018-07-21T10:04:54.182Z,19.50
2018-07-21T10:07:23.267Z,19.60
2018-07-21T10:09:52.406Z,19.50
2018-07-21T10:12:21.317Z,19.50
2018-07-21T10:14:50.259Z,19.50
2018-07-21T10:17:19.176Z,19.60
2018-07-21T10:19:48.910Z,19.60
2018-07-21T10:22:17.827Z,19.50
2018-07-21T10:24:52.154Z,19.60
2018-07-21T10:27:21.149Z,19.60
2018-07-21T10:29:50.234Z,19.60
2018-07-21T10:32:20.254Z,19.60
2018-07-21T10:34:49.161Z,19.80
2018-07-21T10:37:18.037Z,19.80
2018-07-21T10:39:46.983Z,20.00
2018-07-21T10:42:15.883Z,19.90
2018-07-21T10:44:45.055Z,20.00
2018-07-21T10:49:45.332Z,19.90
2018-07-21T10:52:14.218Z,19.90
2018-07-21T10:54:43.178Z,19.90
2018-07-21T10:57:12.246Z,19.80
2018-07-21T10:59:41.305Z,20.00
2018-07-21T11:02:10.335Z,20.10
2018-07-21T11:04:39.238Z,20.20
2018-07-21T11:07:08.118Z,20.10
2018-07-21T11:09:37.021Z,20.10
2018-07-21T11:12:05.946Z,20.00
2018-07-21T11:14:35.384Z,20.00
2018-07-21T11:17:04.286Z,20.00
2018-07-21T11:19:33.191Z,20.00
2018-07-21T11:22:02.209Z,20.00
2018-07-21T11:24:31.118Z,20.10
2018-07-21T11:27:00.167Z,20.20
2018-07-21T11:29:29.270Z,20.30
2018-07-21T11:31:58.142Z,20.30
2018-07-21T11:34:27.085Z,20.40
2018-07-21T11:36:56.073Z,20.50
2018-07-21T11:39:25.015Z,20.60
2018-07-21T11:41:53.959Z,20.60
2018-07-21T11:44:23.032Z,20.50
2018-07-21T11:46:53.639Z,20.50
2018-07-21T11:49:22.682Z,20.40
2018-07-21T11:51:51.959Z,20.40
2018-07-21T11:54:23.786Z,20.50
2018-07-21T11:56:58.790Z,20.60
2018-07-21T11:59:28.114Z,20.60
2018-07-21T12:01:57.498Z,20.50
2018-07-21T12:04:27.117Z,20.40
2018-07-21T12:06:56.143Z,20.50
2018-07-21T12:09:25.192Z,20.40
2018-07-21T12:11:54.716Z,20.50
2018-07-21T12:16:52.401Z,20.50
2018-07-21T12:19:21.317Z,20.70
2018-07-21T12:21:50.254Z,20.60
2018-07-21T12:24:19.162Z,20.70
2018-07-21T12:26:48.071Z,20.60
2018-07-21T12:29:16.966Z,20.50
2018-07-21T12:31:45.889Z,20.50
2018-07-21T12:34:15.427Z,20.60
2018-07-21T12:36:44.411Z,20.60
2018-07-21T12:39:13.554Z,20.60
2018-07-21T12:41:42.482Z,20.50
2018-07-21T12:44:11.397Z,20.60
2018-07-21T12:46:40.307Z,20.60
2018-07-21T12:49:09.837Z,20.70
2018-07-21T12:51:39.201Z,20.70
2018-07-21T12:54:08.131Z,20.80
2018-07-21T12:59:05.606Z,20.90
2018-07-21T13:01:34.515Z,20.90
2018-07-21T13:04:03.613Z,20.90
2018-07-21T13:06:32.529Z,21.00
2018-07-21T13:09:01.420Z,21.00
2018-07-21T13:11:30.334Z,21.00
2018-07-21T13:13:59.267Z,21.00
2018-07-21T13:16:28.181Z,20.90
2018-07-21T13:18:57.087Z,20.80
2018-07-21T13:21:26.173Z,20.60
2018-07-21T13:23:55.202Z,20.50
2018-07-21T13:26:24.154Z,20.50
2018-07-21T13:28:54.274Z,20.50
2018-07-21T13:31:23.546Z,20.40
2018-07-21T13:33:52.533Z,20.50
2018-07-21T13:36:21.476Z,20.50
2018-07-21T13:38:50.511Z,20.60
2018-07-21T13:41:19.466Z,20.40
2018-07-21T13:43:48.402Z,20.30
2018-07-21T13:46:17.501Z,20.40
2018-07-21T13:48:46.452Z,20.30
2018-07-21T13:51:15.360Z,20.40
2018-07-21T13:53:47.656Z,20.50
2018-07-21T13:56:16.851Z,20.50
2018-07-21T13:58:45.765Z,20.60
2018-07-21T14:01:14.843Z,20.60
2018-07-21T14:03:43.790Z,20.60
2018-07-21T14:06:12.710Z,20.60
2018-07-21T14:08:41.895Z,20.60
2018-07-21T14:11:10.806Z,20.70
2018-07-21T14:13:39.802Z,20.70
2018-07-21T14:16:08.734Z,20.70
2018-07-21T14:18:37.646Z,20.70
2018-07-21T14:21:06.567Z,20.60
2018-07-21T14:23:35.594Z,20.50
2018-07-21T14:26:04.630Z,20.30
2018-07-21T14:28:33.557Z,20.40
2018-07-21T14:31:02.478Z,20.50
2018-07-21T14:33:32.415Z,20.40
2018-07-21T14:36:01.457Z,20.30
2018-07-21T14:38:30.387Z,20.40
2018-07-21T14:40:59.365Z,20.50
2018-07-21T14:43:28.405Z,20.40
2018-07-21T14:45:57.361Z,20.40
2018-07-21T14:48:26.337Z,20.50
2018-07-21T14:50:55.265Z,20.50
2018-07-21T14:53:24.178Z,20.50
2018-07-21T14:55:53.179Z,20.70
2018-07-21T14:58:22.084Z,20.80
2018-07-21T15:00:51.070Z,20.80
2018-07-21T15:03:20.007Z,20.80
2018-07-21T15:05:48.938Z,20.70
2018-07-21T15:08:17.851Z,20.60
2018-07-21T15:10:46.774Z,20.60
2018-07-21T15:13:15.690Z,20.60
2018-07-21T15:15:44.609Z,20.50
2018-07-21T15:18:13.594Z,20.60
2018-07-21T15:20:42.554Z,20.70
2018-07-21T15:23:11.430Z,20.80
2018-07-21T15:25:40.330Z,20.90
2018-07-21T15:28:09.326Z,20.90
2018-07-21T15:30:38.226Z,20.70
2018-07-21T15:33:07.158Z,20.70
2018-07-21T15:35:36.070Z,20.80
2018-07-21T15:38:04.956Z,20.80
2018-07-21T15:40:33.887Z,20.90
2018-07-21T15:43:02.870Z,20.90
2018-07-21T15:45:31.883Z,20.90
2018-07-21T15:48:00.732Z,20.80
2018-07-21T15:50:29.671Z,20.90
2018-07-21T15:52:58.586Z,20.90
2018-07-21T15:55:27.534Z,20.90
2018-07-21T16:00:25.011Z,21.00
2018-07-21T16:02:54.126Z,21.20
2018-07-21T16:05:23.338Z,21.20
2018-07-21T16:07:52.402Z,21.30
2018-07-21T16:10:21.315Z,21.30
2018-07-21T16:12:50.217Z,21.30
2018-07-21T16:15:19.141Z,21.30
2018-07-21T16:17:48.047Z,21.30
2018-07-21T16:20:16.927Z,21.20
2018-07-21T16:22:45.834Z,21.20
2018-07-21T16:25:14.727Z,21.20
2018-07-21T16:27:43.644Z,21.10
2018-07-21T16:30:12.540Z,21.10
2018-07-21T16:32:41.553Z,21.20
2018-07-21T16:35:10.403Z,21.20
2018-07-21T16:37:40.219Z,21.20
2018-07-21T16:40:09.173Z,21.10
2018-07-21T16:42:38.211Z,21.00
2018-07-21T16:45:07.179Z,21.00
2018-07-21T16:47:37.110Z,20.90
2018-07-21T16:50:06.163Z,20.90
2018-07-21T16:52:35.074Z,20.80
2018-07-21T16:55:04.003Z,20.70
2018-07-21T17:00:01.408Z,20.60
2018-07-21T17:02:30.324Z,20.50
2018-07-21T17:04:59.214Z,20.50
2018-07-21T17:07:28.152Z,20.50
2018-07-21T17:09:57.058Z,20.60
2018-07-21T17:12:25.992Z,20.60
2018-07-21T17:14:54.918Z,20.50
2018-07-21T17:17:23.874Z,20.50
2018-07-21T17:19:52.767Z,20.50
2018-07-21T17:22:21.668Z,20.50
2018-07-21T17:24:50.802Z,20.50
2018-07-21T17:27:19.776Z,20.30
2018-07-21T17:29:48.867Z,20.30
2018-07-21T17:32:17.782Z,20.30
2018-07-21T17:34:46.678Z,20.30
2018-07-21T17:37:15.602Z,20.20
2018-07-21T17:39:44.562Z,20.20
2018-07-21T17:42:14.702Z,20.10
2018-07-21T17:44:43.643Z,20.10
2018-07-21T17:47:12.810Z,20.10
2018-07-21T17:49:41.706Z,20.00
2018-07-21T17:52:10.673Z,20.00
2018-07-21T17:54:39.526Z,20.00
2018-07-21T17:57:08.602Z,20.00
2018-07-21T17:59:37.514Z,20.00
2018-07-21T18:02:06.506Z,20.00
2018-07-21T18:04:35.401Z,19.90
2018-07-21T18:07:04.422Z,19.80
2018-07-21T18:09:33.315Z,19.80
2018-07-21T18:12:02.326Z,19.80
2018-07-21T18:14:31.199Z,19.90
2018-07-21T18:17:00.151Z,19.70
2018-07-21T18:19:29.054Z,19.80
2018-07-21T18:21:58.003Z,19.60
2018-07-21T18:24:27.963Z,19.40
2018-07-21T18:26:56.978Z,19.50
2018-07-21T18:29:26.078Z,19.60
2018-07-21T18:31:55.026Z,19.60
2018-07-21T18:34:24.044Z,19.50
2018-07-21T18:36:53.000Z,19.60
2018-07-21T18:39:21.882Z,19.50
2018-07-21T18:41:50.786Z,19.50
2018-07-21T18:44:20.707Z,19.50
2018-07-21T18:46:49.642Z,19.40
2018-07-21T18:49:18.566Z,19.50
2018-07-21T18:51:47.465Z,19.50
2018-07-21T18:54:16.430Z,19.40
2018-07-21T18:56:45.343Z,19.40
2018-07-21T18:59:14.271Z,19.30
2018-07-21T19:01:43.178Z,19.40
2018-07-21T19:04:12.062Z,19.40
2018-07-21T19:06:40.970Z,19.30
2018-07-21T19:09:10.474Z,19.30
2018-07-21T19:11:39.698Z,19.30
2018-07-21T19:14:08.571Z,19.40
2018-07-21T19:16:40.070Z,19.40
2018-07-21T19:19:09.142Z,19.40
2018-07-21T19:21:38.114Z,19.40
2018-07-21T19:26:40.770Z,19.30
2018-07-21T19:29:09.686Z,19.30
2018-07-21T19:31:39.158Z,19.30
2018-07-21T19:34:08.071Z,19.30
2018-07-21T19:36:36.967Z,19.30
2018-07-21T19:39:07.426Z,19.30
2018-07-21T19:41:41.874Z,19.30
2018-07-21T19:44:10.779Z,19.20
2018-07-21T19:46:39.673Z,19.30
2018-07-21T19:51:37.079Z,19.10
2018-07-21T19:54:06.019Z,19.10
2018-07-21T19:56:34.962Z,19.10
2018-07-21T19:59:03.869Z,19.20
2018-07-21T20:01:32.750Z,19.10
2018-07-21T20:04:01.712Z,19.20
2018-07-21T20:06:30.605Z,19.20
2018-07-21T20:08:59.523Z,19.30
2018-07-21T20:11:28.426Z,19.20
2018-07-21T20:13:57.455Z,19.30
2018-07-21T20:16:27.406Z,19.20
2018-07-21T20:18:56.363Z,19.20
2018-07-21T20:21:25.356Z,19.20
2018-07-21T20:23:54.280Z,19.30
2018-07-21T20:26:23.196Z,19.20
2018-07-21T20:28:52.123Z,19.20
2018-07-21T20:31:21.030Z,19.20
2018-07-21T20:33:49.983Z,19.30
2018-07-21T20:36:18.873Z,19.30
2018-07-21T20:38:48.146Z,19.30
2018-07-21T20:41:17.050Z,19.20
2018-07-21T20:43:46.087Z,19.20
2018-07-21T20:46:15.058Z,19.30
2018-07-21T20:48:44.057Z,19.20
2018-07-21T20:51:12.987Z,19.20
2018-07-21T20:53:41.893Z,19.20
2018-07-21T20:56:10.844Z,19.20
2018-07-21T20:58:39.745Z,19.20
2018-07-21T21:01:08.679Z,19.20
2018-07-21T21:03:37.559Z,19.30
2018-07-21T21:06:06.470Z,19.30
2018-07-21T21:08:35.834Z,19.20
2018-07-21T21:11:04.743Z,19.20
2018-07-21T21:13:33.670Z,19.20
2018-07-21T21:16:02.584Z,19.10
2018-07-21T21:18:31.497Z,19.10
2018-07-21T21:21:00.442Z,19.10
2018-07-21T21:23:29.399Z,19.10
2018-07-21T21:25:58.338Z,19.00
2018-07-21T21:28:27.319Z,19.10
2018-07-21T21:30:56.269Z,19.20
2018-07-21T21:33:25.281Z,19.20
2018-07-21T21:35:54.198Z,19.10
2018-07-21T21:40:51.763Z,19.10
2018-07-21T21:43:20.670Z,19.10
2018-07-21T21:45:49.588Z,19.00
2018-07-21T21:48:18.864Z,19.00
2018-07-21T21:50:47.776Z,19.00
2018-07-21T21:53:16.793Z,19.00
2018-07-21T21:55:45.703Z,19.00
2018-07-21T21:58:14.942Z,19.00
2018-07-21T22:01:16.019Z,18.90
2018-07-21T22:03:45.532Z,18.90
2018-07-21T22:06:14.441Z,18.90
2018-07-21T22:08:43.362Z,18.90
2018-07-21T22:11:12.330Z,18.90
2018-07-21T22:13:41.242Z,18.90
2018-07-21T22:16:10.225Z,18.90
2018-07-21T22:18:39.238Z,18.70
2018-07-21T22:21:08.170Z,18.70
2018-07-21T22:23:37.162Z,18.70
2018-07-21T22:26:06.141Z,18.70
2018-07-21T22:28:35.081Z,18.70
2018-07-21T22:31:04.022Z,18.70
2018-07-21T22:33:33.144Z,18.70
2018-07-21T22:36:02.074Z,18.70
2018-07-21T22:38:31.001Z,18.70
2018-07-21T22:40:59.908Z,18.70
2018-07-21T22:43:28.940Z,18.70
2018-07-21T22:45:57.986Z,18.70
2018-07-21T22:48:27.044Z,18.70
2018-07-21T22:50:56.147Z,18.70
2018-07-21T22:53:25.148Z,18.70
2018-07-21T22:55:54.155Z,18.60
2018-07-21T22:58:23.098Z,18.70
2018-07-21T23:00:52.287Z,18.70
2018-07-21T23:03:21.149Z,18.70
2018-07-21T23:05:50.131Z,18.70
2018-07-21T23:08:19.066Z,18.60
2018-07-21T23:10:47.975Z,18.60
2018-07-21T23:13:17.047Z,18.50
2018-07-21T23:15:45.962Z,18.50
2018-07-21T23:18:14.945Z,18.50
2018-07-21T23:20:43.855Z,18.50
2018-07-21T23:23:12.752Z,18.40
2018-07-21T23:25:41.670Z,18.40
2018-07-21T23:28:10.578Z,18.50
2018-07-21T23:30:39.502Z,18.50
2018-07-21T23:33:08.516Z,18.40
2018-07-21T23:35:37.490Z,18.40
2018-07-21T23:38:06.413Z,18.40
2018-07-21T23:40:35.366Z,18.40
2018-07-21T23:43:04.270Z,18.30
2018-07-21T23:45:33.193Z,18.30
2018-07-21T23:48:02.095Z,18.20
2018-07-21T23:50:31.004Z,18.20
2018-07-21T23:52:59.905Z,18.20
2018-07-21T23:55:28.854Z,18.20
2018-07-21T23:57:57.793Z,18.20
